createdAt,value
2023-04-18T00:01:58.987Z,4.90
2023-04-18T00:04:26.505Z,4.90
2023-04-18T00:06:53.830Z,5.10
2023-04-18T00:09:20.974Z,4.90
2023-04-18T00:11:48.484Z,4.90
2023-04-18T00:14:15.759Z,4.80
2023-04-18T00:16:43.320Z,4.80
2023-04-18T00:19:10.452Z,4.70
2023-04-18T00:21:38.006Z,4.70
2023-04-18T00:24:05.578Z,4.70
2023-04-18T00:26:32.667Z,4.60
2023-04-18T00:28:59.866Z,4.60
2023-04-18T00:31:27.073Z,4.60
2023-04-18T00:33:54.215Z,4.50
2023-04-18T00:36:24.209Z,4.50
2023-04-18T00:38:51.316Z,4.50
2023-04-18T00:41:19.993Z,4.50
2023-04-18T00:43:47.117Z,4.50
2023-04-18T00:46:14.277Z,4.50
2023-04-18T00:48:41.706Z,4.50
2023-04-18T00:51:11.116Z,4.40
2023-04-18T00:53:38.404Z,4.40
2023-04-18T00:56:07.517Z,4.40
2023-04-18T00:58:34.635Z,4.40
2023-04-18T01:01:01.755Z,4.50
2023-04-18T01:03:29.032Z,4.60
2023-04-18T01:05:57.540Z,4.60
2023-04-18T01:08:25.678Z,4.60
2023-04-18T01:10:52.824Z,4.80
2023-04-18T01:13:21.215Z,4.70
2023-04-18T01:15:50.930Z,4.70
2023-04-18T01:18:19.239Z,4.70
2023-04-18T01:20:49.819Z,4.70
2023-04-18T01:23:19.272Z,4.70
2023-04-18T01:25:49.420Z,4.70
2023-04-18T01:28:21.437Z,4.70
2023-04-18T01:30:49.068Z,4.70
2023-04-18T01:33:16.388Z,4.80
2023-04-18T01:35:44.642Z,4.80
2023-04-18T01:38:11.836Z,4.80
2023-04-18T01:40:38.929Z,5.00
2023-04-18T01:43:06.004Z,4.90
2023-04-18T01:45:33.039Z,4.90
2023-04-18T01:48:00.196Z,4.90
2023-04-18T01:50:27.372Z,5.00
2023-04-18T01:52:54.465Z,5.10
2023-04-18T01:55:21.699Z,5.00
2023-04-18T01:57:50.844Z,5.00
2023-04-18T02:00:20.297Z,5.10
2023-04-18T02:02:47.486Z,5.10
2023-04-18T02:05:14.745Z,5.10
2023-04-18T02:07:42.797Z,5.10
2023-04-18T02:10:11.268Z,5.10
2023-04-18T02:12:38.307Z,5.10
2023-04-18T02:15:06.590Z,5.20
2023-04-18T02:17:36.357Z,5.20
2023-04-18T02:20:04.145Z,5.20
2023-04-18T02:22:31.205Z,5.30
2023-04-18T02:25:00.842Z,5.30
2023-04-18T02:27:27.958Z,5.30
2023-04-18T02:29:57.219Z,5.30
2023-04-18T02:32:24.907Z,5.40
2023-04-18T02:34:52.107Z,5.30
2023-04-18T02:37:19.139Z,5.40
2023-04-18T02:39:46.216Z,5.40
2023-04-18T02:42:13.321Z,5.40
2023-04-18T02:44:40.430Z,5.40
2023-04-18T02:47:07.622Z,5.50
2023-04-18T02:49:38.186Z,5.50
2023-04-18T02:52:05.366Z,5.50
2023-04-18T02:54:32.518Z,5.60
2023-04-18T02:57:13.233Z,5.60
2023-04-18T02:59:56.722Z,5.60
2023-04-18T03:02:42.487Z,5.60
2023-04-18T03:05:28.910Z,5.60
2023-04-18T03:07:59.270Z,5.60
2023-04-18T03:10:26.662Z,5.50
2023-04-18T03:12:53.784Z,5.60
2023-04-18T03:15:21.889Z,5.50
2023-04-18T03:17:50.700Z,5.50
2023-04-18T03:20:20.792Z,5.60
2023-04-18T03:22:47.942Z,5.60
2023-04-18T03:25:19.038Z,5.60
2023-04-18T03:27:51.602Z,5.70
2023-04-18T03:30:21.247Z,5.60
2023-04-18T03:32:56.928Z,5.70
2023-04-18T03:35:24.245Z,5.60
2023-04-18T03:37:51.708Z,5.70
2023-04-18T03:40:25.890Z,5.70
2023-04-18T03:42:56.215Z,5.70
2023-04-18T03:45:23.427Z,5.70
2023-04-18T03:47:50.722Z,5.70
2023-04-18T03:50:18.588Z,5.70
2023-04-18T03:52:47.716Z,5.70
2023-04-18T03:55:16.987Z,5.70
2023-04-18T03:57:44.118Z,5.60
2023-04-18T04:00:17.756Z,5.60
2023-04-18T04:02:52.557Z,5.60
2023-04-18T04:05:21.217Z,5.60
2023-04-18T04:07:49.640Z,5.60
2023-04-18T04:10:16.777Z,5.60
2023-04-18T04:12:43.937Z,5.50
2023-04-18T04:15:12.096Z,5.50
2023-04-18T04:17:45.300Z,5.50
2023-04-18T04:20:13.134Z,5.50
2023-04-18T04:22:40.441Z,5.50
2023-04-18T04:25:08.400Z,5.40
2023-04-18T04:27:39.479Z,5.40
2023-04-18T04:30:11.964Z,5.40
2023-04-18T04:32:40.812Z,5.40
2023-04-18T04:35:08.714Z,5.30
2023-04-18T04:37:35.833Z,5.40
2023-04-18T04:40:23.901Z,5.30
2023-04-18T04:42:56.233Z,5.30
2023-04-18T04:45:30.038Z,5.40
2023-04-18T04:47:57.256Z,5.30
2023-04-18T04:50:24.413Z,5.30
2023-04-18T04:52:51.604Z,5.30
2023-04-18T04:55:19.089Z,5.30
2023-04-18T04:57:47.756Z,5.40
2023-04-18T05:00:32.174Z,5.40
2023-04-18T05:02:59.918Z,5.40
2023-04-18T05:05:28.248Z,5.50
2023-04-18T05:07:55.416Z,5.50
2023-04-18T05:10:23.249Z,5.40
2023-04-18T05:12:50.383Z,5.50
2023-04-18T05:15:18.929Z,5.50
2023-04-18T05:17:46.229Z,5.60
2023-04-18T05:20:13.449Z,5.50
2023-04-18T05:22:40.614Z,5.60
2023-04-18T05:25:08.426Z,5.60
2023-04-18T05:27:35.499Z,5.60
2023-04-18T05:30:02.595Z,5.70
2023-04-18T05:32:29.691Z,5.70
2023-04-18T05:34:56.808Z,5.70
2023-04-18T05:37:23.929Z,5.70
2023-04-18T05:39:51.110Z,5.70
2023-04-18T05:42:18.162Z,5.80
2023-04-18T05:44:45.303Z,5.80
2023-04-18T05:47:12.379Z,5.80
2023-04-18T05:49:39.427Z,5.80
2023-04-18T05:52:06.517Z,5.70
2023-04-18T05:54:33.611Z,5.90
2023-04-18T05:57:02.114Z,5.90
2023-04-18T05:59:30.300Z,6.00
2023-04-18T06:01:57.473Z,6.00
2023-04-18T06:04:24.720Z,6.00
2023-04-18T06:06:52.048Z,6.10
2023-04-18T06:09:19.517Z,6.90
2023-04-18T06:11:46.894Z,6.20
2023-04-18T06:14:14.110Z,6.20
2023-04-18T06:16:41.425Z,6.20
2023-04-18T06:19:08.751Z,6.40
2023-04-18T06:21:35.868Z,6.40
2023-04-18T06:24:02.965Z,6.50
2023-04-18T06:26:32.095Z,6.50
2023-04-18T06:28:59.226Z,6.50
2023-04-18T06:31:26.331Z,6.60
2023-04-18T06:33:53.704Z,6.70
2023-04-18T06:36:21.404Z,6.80
2023-04-18T06:38:48.584Z,6.90
2023-04-18T06:41:15.994Z,6.90
2023-04-18T06:43:52.123Z,7.00
2023-04-18T06:46:29.037Z,7.10
2023-04-18T06:48:56.134Z,7.20
2023-04-18T06:51:23.273Z,7.30
2023-04-18T06:53:52.884Z,7.40
2023-04-18T06:56:20.935Z,7.40
2023-04-18T06:58:49.405Z,7.50
2023-04-18T07:01:16.608Z,7.60
2023-04-18T07:03:43.935Z,2.70
2023-04-18T07:06:11.317Z,7.70
2023-04-18T07:08:38.600Z,7.70
2023-04-18T07:11:06.763Z,7.80
2023-04-18T07:13:33.891Z,7.80
2023-04-18T07:16:01.649Z,7.90
2023-04-18T07:18:37.348Z,8.10
2023-04-18T07:21:09.256Z,7.90
2023-04-18T07:23:37.107Z,8.00
2023-04-18T07:26:05.857Z,8.20
2023-04-18T07:28:33.530Z,8.20
2023-04-18T07:31:03.165Z,8.30
2023-04-18T07:33:34.049Z,8.30
2023-04-18T07:36:01.979Z,8.40
2023-04-18T07:38:29.123Z,8.40
2023-04-18T07:41:01.503Z,8.60
2023-04-18T07:43:28.635Z,8.70
2023-04-18T07:45:55.946Z,8.90
2023-04-18T07:48:23.114Z,8.90
2023-04-18T07:50:50.218Z,8.80
2023-04-18T07:53:17.426Z,8.90
2023-04-18T07:55:45.404Z,9.10
2023-04-18T07:58:13.052Z,8.90
2023-04-18T08:00:42.659Z,9.40
2023-04-18T08:03:11.076Z,9.10
2023-04-18T08:05:43.593Z,9.20
2023-04-18T08:08:12.173Z,9.30
2023-04-18T08:10:39.365Z,9.30
2023-04-18T08:13:07.034Z,9.40
2023-04-18T08:15:34.212Z,9.40
2023-04-18T08:18:02.127Z,9.30
2023-04-18T08:20:29.310Z,9.40
2023-04-18T08:23:06.335Z,9.50
2023-04-18T08:25:36.367Z,9.20
2023-04-18T08:28:04.159Z,9.40
2023-04-18T08:30:31.672Z,9.40
2023-04-18T08:33:01.068Z,9.70
2023-04-18T08:35:28.405Z,9.60
2023-04-18T08:37:55.546Z,10.20
2023-04-18T08:40:22.716Z,9.90
2023-04-18T08:42:52.762Z,9.60
2023-04-18T08:45:20.966Z,9.90
2023-04-18T08:47:48.398Z,10.10
2023-04-18T08:50:16.606Z,9.90
2023-04-18T08:52:48.831Z,9.90
2023-04-18T08:57:44.883Z,10.10
2023-04-18T09:00:12.920Z,10.00
2023-04-18T09:02:43.766Z,10.50
2023-04-18T09:05:21.251Z,10.30
2023-04-18T09:07:51.499Z,10.20
2023-04-18T09:10:32.642Z,10.40
2023-04-18T09:13:05.645Z,10.50
2023-04-18T09:18:03.357Z,10.20
2023-04-18T09:20:39.989Z,10.20
2023-04-18T09:23:10.778Z,11.10
2023-04-18T09:25:48.153Z,10.80
2023-04-18T09:28:33.243Z,10.80
2023-04-18T09:31:13.358Z,10.90
2023-04-18T09:33:54.466Z,10.90
2023-04-18T09:36:31.403Z,10.90
2023-04-18T09:38:58.736Z,10.70
2023-04-18T09:44:15.867Z,10.80
2023-04-18T09:46:47.182Z,10.70
2023-04-18T09:49:16.185Z,11.00
2023-04-18T09:51:46.240Z,10.40
2023-04-18T09:54:17.608Z,10.70
2023-04-18T09:56:47.267Z,10.80
2023-04-18T09:59:41.103Z,10.70
2023-04-18T10:02:19.708Z,10.40
2023-04-18T10:04:50.000Z,10.70
2023-04-18T10:09:49.393Z,11.00
2023-04-18T10:12:18.101Z,11.00
2023-04-18T10:14:46.310Z,10.70
2023-04-18T10:17:14.949Z,10.70
2023-04-18T10:24:53.532Z,10.80
2023-04-18T10:27:49.871Z,10.80
2023-04-18T10:30:18.498Z,10.70
2023-04-18T10:32:48.804Z,10.70
2023-04-18T10:37:59.401Z,10.60
2023-04-18T10:40:35.712Z,11.10
2023-04-18T10:43:02.842Z,11.30
2023-04-18T10:45:32.541Z,10.70
2023-04-18T10:48:26.065Z,10.70
2023-04-18T10:51:17.092Z,10.70
2023-04-18T10:54:05.263Z,10.60
2023-04-18T10:59:03.757Z,10.60
2023-04-18T11:01:33.189Z,9.70
2023-04-18T11:04:01.569Z,10.70
2023-04-18T11:09:14.051Z,10.70
2023-04-18T11:11:42.411Z,10.70
2023-04-18T11:14:10.126Z,10.90
2023-04-18T11:19:26.468Z,10.80
2023-04-18T11:26:55.860Z,11.30
2023-04-18T11:31:58.371Z,11.10
2023-04-18T11:34:31.463Z,11.10
2023-04-18T11:41:56.414Z,11.10
2023-04-18T11:44:25.125Z,11.10
2023-04-18T11:49:31.781Z,11.10
2023-04-18T11:52:12.593Z,11.80
2023-04-18T11:54:44.882Z,10.80
2023-04-18T11:57:26.922Z,10.70
2023-04-18T12:02:26.148Z,11.00
2023-04-18T12:07:34.511Z,11.00
2023-04-18T12:10:02.477Z,10.70
2023-04-18T12:15:08.588Z,11.10
2023-04-18T12:17:38.140Z,11.00
2023-04-18T12:20:10.753Z,10.90
2023-04-18T12:22:48.924Z,11.10
2023-04-18T12:27:55.304Z,11.30
2023-04-18T12:30:25.562Z,11.40
2023-04-18T12:32:56.175Z,11.50
2023-04-18T12:35:25.251Z,11.40
2023-04-18T12:37:55.844Z,11.50
2023-04-18T12:40:24.588Z,11.90
2023-04-18T12:45:22.136Z,11.50
2023-04-18T12:47:51.851Z,11.50
2023-04-18T12:50:25.265Z,11.50
2023-04-18T12:52:55.645Z,11.60
2023-04-18T12:57:54.464Z,11.60
2023-04-18T13:00:23.945Z,11.60
2023-04-18T13:05:23.499Z,11.50
2023-04-18T13:07:58.684Z,11.50
2023-04-18T13:10:32.599Z,11.50
2023-04-18T13:17:56.445Z,11.90
2023-04-18T13:22:51.543Z,11.30
2023-04-18T13:30:13.899Z,11.30
2023-04-18T13:35:11.395Z,11.00
2023-04-18T13:40:07.958Z,11.30
2023-04-18T13:42:37.372Z,11.20
2023-04-18T13:50:00.078Z,11.40
2023-04-18T13:54:55.212Z,11.60
2023-04-18T13:57:23.171Z,11.10
2023-04-18T14:09:41.386Z,10.90
2023-04-18T14:24:26.818Z,11.00
2023-04-18T14:26:53.917Z,11.60
2023-04-18T14:41:40.521Z,11.30
2023-04-18T14:44:07.626Z,11.30
2023-04-18T15:06:17.465Z,11.10
2023-04-18T15:23:30.932Z,10.60
2023-04-18T15:48:13.227Z,10.30
2023-04-18T15:50:42.372Z,10.30
2023-04-18T16:20:13.772Z,9.90
2023-04-18T16:25:09.400Z,10.00
2023-04-18T16:32:32.518Z,10.20
2023-04-18T16:34:59.593Z,9.90
2023-04-18T16:39:54.224Z,9.80
2023-04-18T17:02:03.352Z,9.40
2023-04-18T17:04:31.133Z,9.60
2023-04-18T17:11:53.472Z,9.90
2023-04-18T17:21:46.379Z,9.80
2023-04-18T17:24:14.382Z,9.90
2023-04-18T17:26:41.453Z,9.20
2023-04-18T17:29:08.787Z,9.30
2023-04-18T17:31:36.785Z,9.90
2023-04-18T17:39:06.314Z,9.60
2023-04-18T17:41:38.591Z,9.60
2023-04-18T17:46:35.518Z,9.30
2023-04-18T18:01:24.882Z,9.40
2023-04-18T18:03:53.782Z,9.40
2023-04-18T18:13:44.392Z,9.50
2023-04-18T18:18:39.909Z,9.70
2023-04-18T18:23:34.446Z,9.00
2023-04-18T18:28:29.110Z,9.00
2023-04-18T18:30:56.225Z,10.00
2023-04-18T18:33:23.378Z,9.00
2023-04-18T18:35:51.084Z,9.30
2023-04-18T19:00:28.441Z,8.80
2023-04-18T19:02:55.723Z,9.30
2023-04-18T19:07:51.559Z,9.60
2023-04-18T19:12:46.354Z,9.50
2023-04-18T19:20:09.449Z,9.50
2023-04-18T19:22:37.945Z,9.30
2023-04-18T19:27:32.864Z,8.80
2023-04-18T19:37:23.004Z,8.70
2023-04-18T19:42:17.701Z,8.80
2023-04-18T19:49:39.890Z,8.90
2023-04-18T20:14:28.848Z,8.90
2023-04-18T20:19:26.950Z,9.40
2023-04-18T20:21:53.980Z,9.20
2023-04-18T20:34:11.514Z,10.20
2023-04-18T20:44:09.152Z,9.10
2023-04-18T20:56:26.629Z,8.70
2023-04-18T21:01:22.369Z,9.10
2023-04-18T21:08:46.193Z,8.80
2023-04-18T21:18:37.694Z,8.70
2023-04-18T21:23:32.648Z,9.10
2023-04-18T21:25:59.693Z,8.60
2023-04-18T21:28:26.762Z,9.20
2023-04-18T21:33:21.283Z,8.60
2023-04-18T21:48:08.744Z,8.90
2023-04-18T21:57:58.218Z,9.20
2023-04-18T22:05:20.877Z,9.40
2023-04-18T22:10:25.586Z,8.90
2023-04-18T22:15:24.637Z,9.00
2023-04-18T22:20:19.225Z,9.50
2023-04-18T22:27:43.031Z,9.00
2023-04-18T22:30:10.846Z,9.00
2023-04-18T22:35:06.646Z,8.90
2023-04-18T22:37:33.801Z,9.30
2023-04-18T22:54:52.857Z,9.00
2023-04-18T23:02:15.479Z,9.30
2023-04-18T23:07:12.695Z,9.30
2023-04-18T23:14:34.923Z,8.70
2023-04-18T23:17:03.466Z,9.00
2023-04-18T23:19:30.588Z,9.10
2023-04-18T23:21:57.688Z,9.50
2023-04-18T23:31:23.980Z,9.30
2023-04-18T23:36:18.624Z,9.40
2023-04-18T23:38:45.818Z,9.20
2023-04-18T23:46:07.927Z,9.10
2023-04-18T23:51:03.096Z,9.00
2023-04-18T23:58:26.530Z,9.40
